sensor_id;sensor_type;location;lat;lon;timestamp;temperature;humidity
76967;DHT22;65904;52.278;20.972;2022-12-24T00:01:36;5.80;94.40
76967;DHT22;65904;52.278;20.972;2022-12-24T00:04:22;5.90;94.50
76967;DHT22;65904;52.278;20.972;2022-12-24T00:07:08;5.90;94.60
76967;DHT22;65904;52.278;20.972;2022-12-24T00:09:56;5.90;94.60
76967;DHT22;65904;52.278;20.972;2022-12-24T00:12:42;5.90;94.60
76967;DHT22;65904;52.278;20.972;2022-12-24T00:15:28;5.90;94.70
76967;DHT22;65904;52.278;20.972;2022-12-24T00:18:14;5.90;94.70
76967;DHT22;65904;52.278;20.972;2022-12-24T00:21:00;5.90;94.70
76967;DHT22;65904;52.278;20.972;2022-12-24T00:23:48;5.90;94.60
76967;DHT22;65904;52.278;20.972;2022-12-24T00:26:35;6.00;94.70
76967;DHT22;65904;52.278;20.972;2022-12-24T00:29:21;6.00;94.60
76967;DHT22;65904;52.278;20.972;2022-12-24T00:32:07;6.00;94.60
76967;DHT22;65904;52.278;20.972;2022-12-24T00:34:54;6.00;94.60
76967;DHT22;65904;52.278;20.972;2022-12-24T00:37:40;6.00;94.50
76967;DHT22;65904;52.278;20.972;2022-12-24T00:40:26;6.00;94.40
76967;DHT22;65904;52.278;20.972;2022-12-24T00:43:14;6.00;94.50
76967;DHT22;65904;52.278;20.972;2022-12-24T00:46:00;5.90;94.40
76967;DHT22;65904;52.278;20.972;2022-12-24T00:48:46;6.00;94.40
76967;DHT22;65904;52.278;20.972;2022-12-24T00:51:33;5.90;94.30
76967;DHT22;65904;52.278;20.972;2022-12-24T00:54:19;5.90;94.40
76967;DHT22;65904;52.278;20.972;2022-12-24T00:57:06;6.00;94.50
76967;DHT22;65904;52.278;20.972;2022-12-24T00:59:53;6.00;94.40
76967;DHT22;65904;52.278;20.972;2022-12-24T01:02:40;6.00;94.40
76967;DHT22;65904;52.278;20.972;2022-12-24T01:05:26;5.90;94.40
76967;DHT22;65904;52.278;20.972;2022-12-24T01:08:11;5.90;94.40
76967;DHT22;65904;52.278;20.972;2022-12-24T01:10:57;5.90;94.50
76967;DHT22;65904;52.278;20.972;2022-12-24T01:13:43;5.90;94.50
76967;DHT22;65904;52.278;20.972;2022-12-24T01:16:30;5.90;94.50
76967;DHT22;65904;52.278;20.972;2022-12-24T01:19:17;5.90;94.50
76967;DHT22;65904;52.278;20.972;2022-12-24T01:22:03;6.00;94.50
76967;DHT22;65904;52.278;20.972;2022-12-24T01:24:49;6.00;94.50
76967;DHT22;65904;52.278;20.972;2022-12-24T01:27:35;5.90;94.40
76967;DHT22;65904;52.278;20.972;2022-12-24T01:30:22;5.90;94.40
76967;DHT22;65904;52.278;20.972;2022-12-24T01:33:09;5.90;94.30
76967;DHT22;65904;52.278;20.972;2022-12-24T01:35:55;5.90;94.30
76967;DHT22;65904;52.278;20.972;2022-12-24T01:38:41;5.80;94.30
76967;DHT22;65904;52.278;20.972;2022-12-24T01:41:29;5.80;94.40
76967;DHT22;65904;52.278;20.972;2022-12-24T01:44:34;5.80;94.40
76967;DHT22;65904;52.278;20.972;2022-12-24T01:47:26;5.80;94.40
76967;DHT22;65904;52.278;20.972;2022-12-24T01:50:16;5.80;94.40
76967;DHT22;65904;52.278;20.972;2022-12-24T01:53:03;5.80;94.40
76967;DHT22;65904;52.278;20.972;2022-12-24T01:55:51;5.80;94.40
76967;DHT22;65904;52.278;20.972;2022-12-24T01:58:39;5.80;94.40
76967;DHT22;65904;52.278;20.972;2022-12-24T02:01:26;5.80;94.40
76967;DHT22;65904;52.278;20.972;2022-12-24T02:04:18;5.80;94.40
76967;DHT22;65904;52.278;20.972;2022-12-24T02:07:10;5.80;94.60
76967;DHT22;65904;52.278;20.972;2022-12-24T02:09:59;5.80;94.40
76967;DHT22;65904;52.278;20.972;2022-12-24T02:12:46;5.80;94.40
76967;DHT22;65904;52.278;20.972;2022-12-24T02:15:42;5.80;94.40
76967;DHT22;65904;52.278;20.972;2022-12-24T02:18:34;5.80;94.40
76967;DHT22;65904;52.278;20.972;2022-12-24T02:21:52;5.80;94.40
76967;DHT22;65904;52.278;20.972;2022-12-24T02:25:11;5.80;94.50
76967;DHT22;65904;52.278;20.972;2022-12-24T02:28:09;5.80;94.50
76967;DHT22;65904;52.278;20.972;2022-12-24T02:31:01;5.80;94.50
76967;DHT22;65904;52.278;20.972;2022-12-24T02:33:53;5.80;94.60
76967;DHT22;65904;52.278;20.972;2022-12-24T02:36:47;5.80;94.50
76967;DHT22;65904;52.278;20.972;2022-12-24T02:39:39;5.80;94.50
76967;DHT22;65904;52.278;20.972;2022-12-24T02:42:35;5.80;94.50
76967;DHT22;65904;52.278;20.972;2022-12-24T02:45:25;5.80;94.80
76967;DHT22;65904;52.278;20.972;2022-12-24T02:48:16;5.80;94.50
76967;DHT22;65904;52.278;20.972;2022-12-24T02:51:04;5.80;94.50
76967;DHT22;65904;52.278;20.972;2022-12-24T02:53:51;5.80;94.60
76967;DHT22;65904;52.278;20.972;2022-12-24T02:56:49;5.80;94.60
76967;DHT22;65904;52.278;20.972;2022-12-24T02:59:59;5.80;94.50
76967;DHT22;65904;52.278;20.972;2022-12-24T03:03:01;5.80;94.50
76967;DHT22;65904;52.278;20.972;2022-12-24T03:05:59;5.80;94.50
76967;DHT22;65904;52.278;20.972;2022-12-24T03:08:52;5.80;94.60
76967;DHT22;65904;52.278;20.972;2022-12-24T03:11:44;5.90;94.60
76967;DHT22;65904;52.278;20.972;2022-12-24T03:14:34;5.80;94.50
76967;DHT22;65904;52.278;20.972;2022-12-24T03:17:21;5.80;94.40
76967;DHT22;65904;52.278;20.972;2022-12-24T03:20:09;5.80;94.40
76967;DHT22;65904;52.278;20.972;2022-12-24T03:22:57;5.80;94.40
76967;DHT22;65904;52.278;20.972;2022-12-24T03:25:44;5.80;94.50
76967;DHT22;65904;52.278;20.972;2022-12-24T03:28:30;5.80;94.50
76967;DHT22;65904;52.278;20.972;2022-12-24T03:31:17;5.80;94.50
76967;DHT22;65904;52.278;20.972;2022-12-24T03:34:03;5.80;94.50
76967;DHT22;65904;52.278;20.972;2022-12-24T03:36:50;5.80;94.50
76967;DHT22;65904;52.278;20.972;2022-12-24T03:39:37;5.80;94.40
76967;DHT22;65904;52.278;20.972;2022-12-24T03:42:23;5.80;94.30
76967;DHT22;65904;52.278;20.972;2022-12-24T03:45:10;5.70;94.30
76967;DHT22;65904;52.278;20.972;2022-12-24T03:47:56;5.80;94.40
76967;DHT22;65904;52.278;20.972;2022-12-24T03:50:42;5.80;94.30
76967;DHT22;65904;52.278;20.972;2022-12-24T03:53:28;5.80;94.30
76967;DHT22;65904;52.278;20.972;2022-12-24T03:56:16;5.80;94.30
76967;DHT22;65904;52.278;20.972;2022-12-24T03:59:02;5.80;94.30
76967;DHT22;65904;52.278;20.972;2022-12-24T04:01:48;5.80;94.30
76967;DHT22;65904;52.278;20.972;2022-12-24T04:04:34;5.80;94.20
76967;DHT22;65904;52.278;20.972;2022-12-24T04:07:21;5.80;94.30
76967;DHT22;65904;52.278;20.972;2022-12-24T04:10:08;5.80;94.30
76967;DHT22;65904;52.278;20.972;2022-12-24T04:12:56;5.80;94.30
76967;DHT22;65904;52.278;20.972;2022-12-24T04:15:42;5.80;94.30
76967;DHT22;65904;52.278;20.972;2022-12-24T04:18:28;5.70;94.20
76967;DHT22;65904;52.278;20.972;2022-12-24T04:21:15;5.70;94.20
76967;DHT22;65904;52.278;20.972;2022-12-24T04:24:01;5.70;94.20
76967;DHT22;65904;52.278;20.972;2022-12-24T04:26:47;5.70;94.20
76967;DHT22;65904;52.278;20.972;2022-12-24T04:29:35;5.70;94.20
76967;DHT22;65904;52.278;20.972;2022-12-24T04:32:21;5.70;94.20
76967;DHT22;65904;52.278;20.972;2022-12-24T04:35:08;5.70;94.10
76967;DHT22;65904;52.278;20.972;2022-12-24T04:37:54;5.70;94.10
76967;DHT22;65904;52.278;20.972;2022-12-24T04:40:41;5.70;94.20
76967;DHT22;65904;52.278;20.972;2022-12-24T04:43:28;5.60;94.20
76967;DHT22;65904;52.278;20.972;2022-12-24T04:46:17;5.60;94.20
76967;DHT22;65904;52.278;20.972;2022-12-24T04:49:04;5.70;94.10
76967;DHT22;65904;52.278;20.972;2022-12-24T04:51:50;5.60;94.10
76967;DHT22;65904;52.278;20.972;2022-12-24T04:54:36;5.60;94.10
76967;DHT22;65904;52.278;20.972;2022-12-24T04:57:22;5.60;94.10
76967;DHT22;65904;52.278;20.972;2022-12-24T05:00:09;5.60;94.20
76967;DHT22;65904;52.278;20.972;2022-12-24T05:02:57;5.60;94.10
76967;DHT22;65904;52.278;20.972;2022-12-24T05:05:44;5.60;94.20
76967;DHT22;65904;52.278;20.972;2022-12-24T05:08:31;5.60;94.20
76967;DHT22;65904;52.278;20.972;2022-12-24T05:11:18;5.60;94.20
76967;DHT22;65904;52.278;20.972;2022-12-24T05:14:04;5.60;94.20
76967;DHT22;65904;52.278;20.972;2022-12-24T05:16:50;5.60;94.20
76967;DHT22;65904;52.278;20.972;2022-12-24T05:19:37;5.60;94.10
76967;DHT22;65904;52.278;20.972;2022-12-24T05:22:24;5.60;94.10
76967;DHT22;65904;52.278;20.972;2022-12-24T05:25:32;5.60;94.00
76967;DHT22;65904;52.278;20.972;2022-12-24T05:28:37;5.60;94.00
76967;DHT22;65904;52.278;20.972;2022-12-24T05:31:25;5.60;94.00
76967;DHT22;65904;52.278;20.972;2022-12-24T05:34:12;5.60;94.00
76967;DHT22;65904;52.278;20.972;2022-12-24T05:37:00;5.60;94.00
76967;DHT22;65904;52.278;20.972;2022-12-24T05:39:46;5.50;93.90
76967;DHT22;65904;52.278;20.972;2022-12-24T05:42:32;5.50;94.00
76967;DHT22;65904;52.278;20.972;2022-12-24T05:45:19;5.50;94.00
76967;DHT22;65904;52.278;20.972;2022-12-24T05:48:05;5.50;94.00
76967;DHT22;65904;52.278;20.972;2022-12-24T05:50:52;5.50;94.00
76967;DHT22;65904;52.278;20.972;2022-12-24T05:53:39;5.50;94.00
76967;DHT22;65904;52.278;20.972;2022-12-24T05:56:26;5.50;94.00
76967;DHT22;65904;52.278;20.972;2022-12-24T05:59:12;5.50;94.00
76967;DHT22;65904;52.278;20.972;2022-12-24T06:01:58;5.50;94.00
76967;DHT22;65904;52.278;20.972;2022-12-24T06:04:45;5.50;94.00
76967;DHT22;65904;52.278;20.972;2022-12-24T06:07:31;5.50;94.00
76967;DHT22;65904;52.278;20.972;2022-12-24T06:10:19;5.50;94.10
76967;DHT22;65904;52.278;20.972;2022-12-24T06:13:05;5.50;94.10
76967;DHT22;65904;52.278;20.972;2022-12-24T06:15:53;5.50;94.00
76967;DHT22;65904;52.278;20.972;2022-12-24T06:18:40;5.50;94.10
76967;DHT22;65904;52.278;20.972;2022-12-24T06:21:26;5.50;94.10
76967;DHT22;65904;52.278;20.972;2022-12-24T06:24:12;5.50;94.10
76967;DHT22;65904;52.278;20.972;2022-12-24T06:27:00;5.50;94.10
76967;DHT22;65904;52.278;20.972;2022-12-24T06:29:46;5.50;94.10
76967;DHT22;65904;52.278;20.972;2022-12-24T06:32:32;5.50;94.10
76967;DHT22;65904;52.278;20.972;2022-12-24T06:35:18;5.50;94.10
76967;DHT22;65904;52.278;20.972;2022-12-24T06:38:04;5.50;94.00
76967;DHT22;65904;52.278;20.972;2022-12-24T06:40:50;5.50;93.90
76967;DHT22;65904;52.278;20.972;2022-12-24T06:43:37;5.50;93.90
76967;DHT22;65904;52.278;20.972;2022-12-24T06:46:24;5.40;93.90
76967;DHT22;65904;52.278;20.972;2022-12-24T06:49:10;5.40;93.90
76967;DHT22;65904;52.278;20.972;2022-12-24T06:51:56;5.40;93.90
76967;DHT22;65904;52.278;20.972;2022-12-24T06:54:42;5.40;93.90
76967;DHT22;65904;52.278;20.972;2022-12-24T06:57:28;5.40;94.00
76967;DHT22;65904;52.278;20.972;2022-12-24T07:00:16;5.40;94.00
76967;DHT22;65904;52.278;20.972;2022-12-24T07:03:02;5.40;94.00
76967;DHT22;65904;52.278;20.972;2022-12-24T07:05:48;5.40;93.90
76967;DHT22;65904;52.278;20.972;2022-12-24T07:08:34;5.40;93.90
76967;DHT22;65904;52.278;20.972;2022-12-24T07:11:22;5.40;93.90
76967;DHT22;65904;52.278;20.972;2022-12-24T07:14:08;5.40;94.20
76967;DHT22;65904;52.278;20.972;2022-12-24T07:16:56;5.40;93.90
76967;DHT22;65904;52.278;20.972;2022-12-24T07:19:42;5.40;93.90
76967;DHT22;65904;52.278;20.972;2022-12-24T07:22:28;5.40;93.90
76967;DHT22;65904;52.278;20.972;2022-12-24T07:25:15;5.40;93.90
76967;DHT22;65904;52.278;20.972;2022-12-24T07:28:00;5.40;93.90
76967;DHT22;65904;52.278;20.972;2022-12-24T07:30:47;5.40;93.90
76967;DHT22;65904;52.278;20.972;2022-12-24T07:33:34;5.40;93.90
76967;DHT22;65904;52.278;20.972;2022-12-24T07:36:20;5.50;93.90
76967;DHT22;65904;52.278;20.972;2022-12-24T07:39:06;5.40;94.20
76967;DHT22;65904;52.278;20.972;2022-12-24T07:41:52;5.40;93.80
76967;DHT22;65904;52.278;20.972;2022-12-24T07:44:38;5.40;93.70
76967;DHT22;65904;52.278;20.972;2022-12-24T07:47:24;5.40;93.70
76967;DHT22;65904;52.278;20.972;2022-12-24T07:50:12;5.40;93.80
76967;DHT22;65904;52.278;20.972;2022-12-24T07:52:58;5.50;93.90
76967;DHT22;65904;52.278;20.972;2022-12-24T07:55:44;5.40;93.70
76967;DHT22;65904;52.278;20.972;2022-12-24T07:58:30;5.40;93.70
76967;DHT22;65904;52.278;20.972;2022-12-24T08:01:16;5.40;93.80
76967;DHT22;65904;52.278;20.972;2022-12-24T08:04:03;5.40;93.70
76967;DHT22;65904;52.278;20.972;2022-12-24T08:06:50;5.50;93.70
76967;DHT22;65904;52.278;20.972;2022-12-24T08:09:36;5.40;93.60
76967;DHT22;65904;52.278;20.972;2022-12-24T08:12:23;5.40;93.60
76967;DHT22;65904;52.278;20.972;2022-12-24T08:15:09;5.50;93.80
76967;DHT22;65904;52.278;20.972;2022-12-24T08:17:55;5.50;93.70
76967;DHT22;65904;52.278;20.972;2022-12-24T08:20:41;5.50;93.60
76967;DHT22;65904;52.278;20.972;2022-12-24T08:23:28;5.50;93.60
76967;DHT22;65904;52.278;20.972;2022-12-24T08:26:14;5.50;93.30
76967;DHT22;65904;52.278;20.972;2022-12-24T08:29:00;5.40;93.40
76967;DHT22;65904;52.278;20.972;2022-12-24T08:31:46;5.50;93.30
76967;DHT22;65904;52.278;20.972;2022-12-24T08:34:32;5.50;93.40
76967;DHT22;65904;52.278;20.972;2022-12-24T08:37:18;5.50;93.60
76967;DHT22;65904;52.278;20.972;2022-12-24T08:40:07;5.60;93.50
76967;DHT22;65904;52.278;20.972;2022-12-24T08:42:53;5.50;93.30
76967;DHT22;65904;52.278;20.972;2022-12-24T08:45:39;5.60;93.30
76967;DHT22;65904;52.278;20.972;2022-12-24T08:48:25;5.60;93.30
76967;DHT22;65904;52.278;20.972;2022-12-24T08:51:11;5.60;93.10
76967;DHT22;65904;52.278;20.972;2022-12-24T08:53:57;5.60;93.20
76967;DHT22;65904;52.278;20.972;2022-12-24T08:56:45;5.60;93.30
76967;DHT22;65904;52.278;20.972;2022-12-24T08:59:31;5.60;93.30
76967;DHT22;65904;52.278;20.972;2022-12-24T09:02:17;5.70;93.30
76967;DHT22;65904;52.278;20.972;2022-12-24T09:05:03;5.70;93.00
76967;DHT22;65904;52.278;20.972;2022-12-24T09:07:49;5.70;93.00
76967;DHT22;65904;52.278;20.972;2022-12-24T09:10:35;5.80;92.90
76967;DHT22;65904;52.278;20.972;2022-12-24T09:13:22;5.80;92.90
76967;DHT22;65904;52.278;20.972;2022-12-24T09:16:08;5.80;92.90
76967;DHT22;65904;52.278;20.972;2022-12-24T09:18:55;5.90;92.80
76967;DHT22;65904;52.278;20.972;2022-12-24T09:21:41;5.90;92.60
76967;DHT22;65904;52.278;20.972;2022-12-24T09:24:27;5.90;92.40
76967;DHT22;65904;52.278;20.972;2022-12-24T09:27:13;5.90;92.50
76967;DHT22;65904;52.278;20.972;2022-12-24T09:30:00;5.80;92.50
76967;DHT22;65904;52.278;20.972;2022-12-24T09:32:47;5.90;92.60
76967;DHT22;65904;52.278;20.972;2022-12-24T09:35:36;5.90;92.50
76967;DHT22;65904;52.278;20.972;2022-12-24T09:38:22;5.80;92.60
76967;DHT22;65904;52.278;20.972;2022-12-24T09:41:12;5.80;92.50
76967;DHT22;65904;52.278;20.972;2022-12-24T09:43:59;5.80;92.40
76967;DHT22;65904;52.278;20.972;2022-12-24T09:46:48;5.80;92.70
76967;DHT22;65904;52.278;20.972;2022-12-24T09:49:36;5.80;92.70
76967;DHT22;65904;52.278;20.972;2022-12-24T09:52:25;5.90;92.60
76967;DHT22;65904;52.278;20.972;2022-12-24T09:55:15;5.90;92.70
76967;DHT22;65904;52.278;20.972;2022-12-24T09:58:03;5.90;92.60
76967;DHT22;65904;52.278;20.972;2022-12-24T10:00:50;5.90;92.60
76967;DHT22;65904;52.278;20.972;2022-12-24T10:03:38;5.80;92.60
76967;DHT22;65904;52.278;20.972;2022-12-24T10:06:26;5.90;92.60
76967;DHT22;65904;52.278;20.972;2022-12-24T10:09:16;5.80;92.70
76967;DHT22;65904;52.278;20.972;2022-12-24T10:12:06;5.90;92.60
76967;DHT22;65904;52.278;20.972;2022-12-24T10:14:56;5.90;92.60
76967;DHT22;65904;52.278;20.972;2022-12-24T10:17:48;5.90;92.60
76967;DHT22;65904;52.278;20.972;2022-12-24T10:20:41;5.90;92.50
76967;DHT22;65904;52.278;20.972;2022-12-24T10:23:30;5.90;92.70
76967;DHT22;65904;52.278;20.972;2022-12-24T10:26:19;5.90;92.50
76967;DHT22;65904;52.278;20.972;2022-12-24T10:29:11;5.90;92.90
76967;DHT22;65904;52.278;20.972;2022-12-24T10:32:00;5.90;92.50
76967;DHT22;65904;52.278;20.972;2022-12-24T10:34:50;5.90;92.40
76967;DHT22;65904;52.278;20.972;2022-12-24T10:37:39;5.90;92.40
76967;DHT22;65904;52.278;20.972;2022-12-24T10:40:27;5.90;92.40
76967;DHT22;65904;52.278;20.972;2022-12-24T10:43:16;5.90;92.40
76967;DHT22;65904;52.278;20.972;2022-12-24T10:46:03;5.90;92.70
76967;DHT22;65904;52.278;20.972;2022-12-24T10:48:50;5.90;92.30
76967;DHT22;65904;52.278;20.972;2022-12-24T10:51:39;5.90;92.20
76967;DHT22;65904;52.278;20.972;2022-12-24T10:54:29;5.90;92.20
76967;DHT22;65904;52.278;20.972;2022-12-24T10:57:24;5.90;92.10
76967;DHT22;65904;52.278;20.972;2022-12-24T11:00:17;5.90;92.00
76967;DHT22;65904;52.278;20.972;2022-12-24T11:03:05;5.90;92.00
76967;DHT22;65904;52.278;20.972;2022-12-24T11:06:00;5.90;91.90
76967;DHT22;65904;52.278;20.972;2022-12-24T11:08:46;5.90;91.90
76967;DHT22;65904;52.278;20.972;2022-12-24T11:11:34;5.90;91.90
76967;DHT22;65904;52.278;20.972;2022-12-24T11:14:20;5.90;91.90
76967;DHT22;65904;52.278;20.972;2022-12-24T11:17:06;5.90;92.00
76967;DHT22;65904;52.278;20.972;2022-12-24T11:19:53;5.90;92.00
76967;DHT22;65904;52.278;20.972;2022-12-24T11:22:38;6.00;91.90
76967;DHT22;65904;52.278;20.972;2022-12-24T11:25:26;5.90;91.90
76967;DHT22;65904;52.278;20.972;2022-12-24T11:28:17;6.00;92.00
76967;DHT22;65904;52.278;20.972;2022-12-24T11:31:05;6.00;92.20
76967;DHT22;65904;52.278;20.972;2022-12-24T11:33:53;6.00;92.00
76967;DHT22;65904;52.278;20.972;2022-12-24T11:36:39;6.00;92.10
76967;DHT22;65904;52.278;20.972;2022-12-24T11:39:25;6.10;92.00
76967;DHT22;65904;52.278;20.972;2022-12-24T11:42:21;6.10;91.90
76967;DHT22;65904;52.278;20.972;2022-12-24T11:45:16;6.10;91.60
76967;DHT22;65904;52.278;20.972;2022-12-24T11:48:21;6.10;91.60
76967;DHT22;65904;52.278;20.972;2022-12-24T11:51:18;6.00;91.60
76967;DHT22;65904;52.278;20.972;2022-12-24T11:54:05;6.00;91.50
76967;DHT22;65904;52.278;20.972;2022-12-24T11:56:54;5.90;91.60
76967;DHT22;65904;52.278;20.972;2022-12-24T11:59:42;5.90;92.00
76967;DHT22;65904;52.278;20.972;2022-12-24T12:02:30;5.90;91.70
76967;DHT22;65904;52.278;20.972;2022-12-24T12:05:19;5.90;91.70
76967;DHT22;65904;52.278;20.972;2022-12-24T12:08:07;5.90;91.90
76967;DHT22;65904;52.278;20.972;2022-12-24T12:10:56;5.90;92.10
76967;DHT22;65904;52.278;20.972;2022-12-24T12:13:43;5.90;91.70
76967;DHT22;65904;52.278;20.972;2022-12-24T12:16:31;5.90;91.70
76967;DHT22;65904;52.278;20.972;2022-12-24T12:19:44;5.90;91.60
76967;DHT22;65904;52.278;20.972;2022-12-24T12:22:34;5.90;91.70
76967;DHT22;65904;52.278;20.972;2022-12-24T12:25:25;5.90;91.70
76967;DHT22;65904;52.278;20.972;2022-12-24T12:28:14;5.90;91.70
76967;DHT22;65904;52.278;20.972;2022-12-24T12:31:03;5.90;91.70
76967;DHT22;65904;52.278;20.972;2022-12-24T12:33:51;5.90;91.70
76967;DHT22;65904;52.278;20.972;2022-12-24T12:36:42;5.90;91.70
76967;DHT22;65904;52.278;20.972;2022-12-24T12:39:30;5.90;91.90
76967;DHT22;65904;52.278;20.972;2022-12-24T12:42:18;5.90;91.90
76967;DHT22;65904;52.278;20.972;2022-12-24T12:45:15;5.90;92.10
76967;DHT22;65904;52.278;20.972;2022-12-24T12:48:13;5.90;91.90
76967;DHT22;65904;52.278;20.972;2022-12-24T12:51:01;5.90;91.80
76967;DHT22;65904;52.278;20.972;2022-12-24T12:54:03;5.90;91.70
76967;DHT22;65904;52.278;20.972;2022-12-24T12:56:53;5.90;91.90
76967;DHT22;65904;52.278;20.972;2022-12-24T12:59:41;5.80;91.70
76967;DHT22;65904;52.278;20.972;2022-12-24T13:02:40;5.80;91.80
76967;DHT22;65904;52.278;20.972;2022-12-24T13:12:26;5.90;92.20
76967;DHT22;65904;52.278;20.972;2022-12-24T13:15:46;5.90;91.80
76967;DHT22;65904;52.278;20.972;2022-12-24T13:18:50;5.80;91.70
76967;DHT22;65904;52.278;20.972;2022-12-24T13:21:41;5.80;91.90
76967;DHT22;65904;52.278;20.972;2022-12-24T13:24:29;5.80;91.70
76967;DHT22;65904;52.278;20.972;2022-12-24T13:27:19;5.80;91.80
76967;DHT22;65904;52.278;20.972;2022-12-24T13:30:36;5.70;91.90
76967;DHT22;65904;52.278;20.972;2022-12-24T13:33:45;5.70;91.80
76967;DHT22;65904;52.278;20.972;2022-12-24T13:37:18;5.70;91.80
76967;DHT22;65904;52.278;20.972;2022-12-24T13:40:16;5.70;91.90
76967;DHT22;65904;52.278;20.972;2022-12-24T13:43:08;5.70;91.80
76967;DHT22;65904;52.278;20.972;2022-12-24T13:45:56;5.70;91.80
76967;DHT22;65904;52.278;20.972;2022-12-24T13:48:42;5.70;91.80
76967;DHT22;65904;52.278;20.972;2022-12-24T13:51:28;5.70;91.80
76967;DHT22;65904;52.278;20.972;2022-12-24T13:54:17;5.60;91.70
76967;DHT22;65904;52.278;20.972;2022-12-24T13:57:24;5.60;91.90
76967;DHT22;65904;52.278;20.972;2022-12-24T14:00:39;5.60;92.00
76967;DHT22;65904;52.278;20.972;2022-12-24T14:03:29;5.60;92.00
76967;DHT22;65904;52.278;20.972;2022-12-24T14:06:21;5.50;92.10
76967;DHT22;65904;52.278;20.972;2022-12-24T14:09:11;5.50;92.20
76967;DHT22;65904;52.278;20.972;2022-12-24T14:15:56;5.50;92.10
76967;DHT22;65904;52.278;20.972;2022-12-24T14:18:49;5.40;92.10
76967;DHT22;65904;52.278;20.972;2022-12-24T14:21:42;5.30;92.30
76967;DHT22;65904;52.278;20.972;2022-12-24T14:24:33;5.30;92.50
76967;DHT22;65904;52.278;20.972;2022-12-24T14:27:24;5.30;92.60
76967;DHT22;65904;52.278;20.972;2022-12-24T14:30:17;5.20;92.60
76967;DHT22;65904;52.278;20.972;2022-12-24T14:33:27;5.20;92.70
76967;DHT22;65904;52.278;20.972;2022-12-24T14:36:18;5.20;92.80
76967;DHT22;65904;52.278;20.972;2022-12-24T14:39:07;5.20;92.80
76967;DHT22;65904;52.278;20.972;2022-12-24T14:42:03;5.20;93.00
76967;DHT22;65904;52.278;20.972;2022-12-24T14:44:58;5.10;92.90
76967;DHT22;65904;52.278;20.972;2022-12-24T14:47:51;5.10;92.80
76967;DHT22;65904;52.278;20.972;2022-12-24T14:50:54;5.10;92.80
76967;DHT22;65904;52.278;20.972;2022-12-24T14:54:04;5.00;92.80
76967;DHT22;65904;52.278;20.972;2022-12-24T14:57:12;4.90;92.90
76967;DHT22;65904;52.278;20.972;2022-12-24T15:00:00;4.90;92.90
76967;DHT22;65904;52.278;20.972;2022-12-24T15:02:49;4.90;93.00
76967;DHT22;65904;52.278;20.972;2022-12-24T15:05:35;4.90;93.00
76967;DHT22;65904;52.278;20.972;2022-12-24T15:08:36;4.90;93.00
76967;DHT22;65904;52.278;20.972;2022-12-24T15:11:24;4.90;92.90
76967;DHT22;65904;52.278;20.972;2022-12-24T15:14:11;4.90;92.90
76967;DHT22;65904;52.278;20.972;2022-12-24T15:17:00;4.80;92.70
76967;DHT22;65904;52.278;20.972;2022-12-24T15:19:49;4.80;92.70
76967;DHT22;65904;52.278;20.972;2022-12-24T15:22:36;4.80;92.90
76967;DHT22;65904;52.278;20.972;2022-12-24T15:25:26;4.70;92.80
76967;DHT22;65904;52.278;20.972;2022-12-24T15:28:16;4.70;92.80
76967;DHT22;65904;52.278;20.972;2022-12-24T15:31:07;4.70;92.90
76967;DHT22;65904;52.278;20.972;2022-12-24T15:33:56;4.70;92.90
76967;DHT22;65904;52.278;20.972;2022-12-24T15:36:44;4.70;92.90
76967;DHT22;65904;52.278;20.972;2022-12-24T15:39:30;4.70;92.90
76967;DHT22;65904;52.278;20.972;2022-12-24T15:42:18;4.70;92.90
76967;DHT22;65904;52.278;20.972;2022-12-24T15:45:11;4.70;92.90
76967;DHT22;65904;52.278;20.972;2022-12-24T15:48:00;4.60;92.90
76967;DHT22;65904;52.278;20.972;2022-12-24T15:50:53;4.70;92.90
76967;DHT22;65904;52.278;20.972;2022-12-24T15:53:42;4.60;92.80
76967;DHT22;65904;52.278;20.972;2022-12-24T15:56:34;4.60;92.80
76967;DHT22;65904;52.278;20.972;2022-12-24T15:59:27;4.60;92.80
76967;DHT22;65904;52.278;20.972;2022-12-24T16:02:37;4.60;92.60
76967;DHT22;65904;52.278;20.972;2022-12-24T16:05:32;4.60;92.60
76967;DHT22;65904;52.278;20.972;2022-12-24T16:08:28;4.60;92.80
76967;DHT22;65904;52.278;20.972;2022-12-24T16:11:17;4.50;92.80
76967;DHT22;65904;52.278;20.972;2022-12-24T16:14:10;4.60;92.90
76967;DHT22;65904;52.278;20.972;2022-12-24T16:16:59;4.50;92.80
76967;DHT22;65904;52.278;20.972;2022-12-24T16:19:47;4.50;92.80
76967;DHT22;65904;52.278;20.972;2022-12-24T16:22:34;4.60;93.20
76967;DHT22;65904;52.278;20.972;2022-12-24T16:25:27;4.50;92.80
76967;DHT22;65904;52.278;20.972;2022-12-24T16:28:14;4.50;92.80
76967;DHT22;65904;52.278;20.972;2022-12-24T16:31:00;4.50;92.80
76967;DHT22;65904;52.278;20.972;2022-12-24T16:33:51;4.50;92.80
76967;DHT22;65904;52.278;20.972;2022-12-24T16:36:37;4.50;92.80
76967;DHT22;65904;52.278;20.972;2022-12-24T16:39:26;4.50;92.80
76967;DHT22;65904;52.278;20.972;2022-12-24T16:42:14;4.50;92.80
76967;DHT22;65904;52.278;20.972;2022-12-24T16:45:18;4.50;92.80
76967;DHT22;65904;52.278;20.972;2022-12-24T16:48:05;4.50;92.90
76967;DHT22;65904;52.278;20.972;2022-12-24T16:50:53;4.50;92.80
76967;DHT22;65904;52.278;20.972;2022-12-24T16:53:39;4.50;92.80
76967;DHT22;65904;52.278;20.972;2022-12-24T16:56:26;4.50;92.80
76967;DHT22;65904;52.278;20.972;2022-12-24T16:59:15;4.40;92.60
76967;DHT22;65904;52.278;20.972;2022-12-24T17:02:02;4.50;92.80
76967;DHT22;65904;52.278;20.972;2022-12-24T17:04:49;4.40;92.70
76967;DHT22;65904;52.278;20.972;2022-12-24T17:07:37;4.40;92.80
76967;DHT22;65904;52.278;20.972;2022-12-24T17:10:23;4.40;92.70
76967;DHT22;65904;52.278;20.972;2022-12-24T17:13:09;4.40;92.80
76967;DHT22;65904;52.278;20.972;2022-12-24T17:15:55;4.40;92.70
76967;DHT22;65904;52.278;20.972;2022-12-24T17:18:41;4.40;92.60
76967;DHT22;65904;52.278;20.972;2022-12-24T17:21:27;4.40;92.60
76967;DHT22;65904;52.278;20.972;2022-12-24T17:24:15;4.40;92.60
76967;DHT22;65904;52.278;20.972;2022-12-24T17:27:01;4.40;92.60
76967;DHT22;65904;52.278;20.972;2022-12-24T17:29:47;4.40;92.60
76967;DHT22;65904;52.278;20.972;2022-12-24T17:32:34;4.40;92.60
76967;DHT22;65904;52.278;20.972;2022-12-24T17:35:21;4.40;92.70
76967;DHT22;65904;52.278;20.972;2022-12-24T17:38:07;4.40;92.70
76967;DHT22;65904;52.278;20.972;2022-12-24T17:41:00;4.40;92.70
76967;DHT22;65904;52.278;20.972;2022-12-24T17:43:47;4.40;92.70
76967;DHT22;65904;52.278;20.972;2022-12-24T17:46:33;4.40;92.70
76967;DHT22;65904;52.278;20.972;2022-12-24T17:49:19;4.40;92.70
76967;DHT22;65904;52.278;20.972;2022-12-24T17:52:05;4.50;92.70
76967;DHT22;65904;52.278;20.972;2022-12-24T17:54:52;4.40;92.70
76967;DHT22;65904;52.278;20.972;2022-12-24T17:57:40;4.40;92.70
76967;DHT22;65904;52.278;20.972;2022-12-24T18:00:26;4.40;92.70